createdAt,value
2022-09-12T00:12:39.057Z,1592.39503
2022-09-12T00:27:40.979Z,1604.79091
2022-09-12T00:42:42.896Z,1571.848
2022-09-12T00:57:44.915Z,1558.14003
2022-09-12T01:12:46.857Z,1553.62368
2022-09-12T01:27:48.809Z,1517.55429
2022-09-12T01:42:50.730Z,1526.19639
2022-09-12T01:57:52.672Z,1509.0095
2022-09-12T02:12:54.603Z,1511.56282
2022-09-12T02:27:56.692Z,1498.88195
2022-09-12T02:42:58.612Z,1461.28732
2022-09-12T02:58:00.526Z,1437.76875
2022-09-12T03:13:02.455Z,1409.04363
2022-09-12T03:28:04.429Z,1372.95133
2022-09-12T03:43:06.355Z,1359.02688
2022-09-12T03:58:08.320Z,1371.54606
2022-09-12T04:13:10.279Z,1370.14366
2022-09-12T04:28:12.194Z,1378.60133
2022-09-12T04:43:14.740Z,966.81147
2022-09-12T04:58:16.741Z,941.01173
2022-09-12T05:13:18.650Z,985.29462
2022-09-12T05:28:20.580Z,1040.37317
2022-09-12T05:43:22.582Z,1098.36116
2022-09-12T05:58:24.503Z,1166.23201
2022-09-12T06:13:26.434Z,1203.95379
2022-09-12T06:28:28.339Z,1243.04318
2022-09-12T06:43:30.275Z,1293.4368
2022-09-12T06:58:32.262Z,1353.53586
2022-09-12T07:13:34.223Z,1453.36277
2022-09-12T07:28:36.184Z,1520.13662
2022-09-12T07:43:38.141Z,1545.55989
2022-09-12T07:58:40.084Z,1541.11608
2022-09-12T08:13:42.073Z,1539.3457
2022-09-12T08:28:43.974Z,1555.42707
2022-09-12T08:43:46.009Z,1593.34175
2022-09-12T08:58:48.063Z,1596.1887
2022-09-12T09:13:49.970Z,1594.28961
2022-09-12T09:28:51.910Z,1591.44942
2022-09-12T09:43:53.966Z,1606.71512
2022-09-12T09:58:55.936Z,1616.4058
2022-09-12T10:13:57.906Z,1635.14387
2022-09-12T10:28:59.832Z,1667.70429
2022-09-12T10:44:01.730Z,1679.19849
2022-09-12T10:59:03.656Z,1731.26664
2022-09-12T11:14:05.624Z,1767.81052
2022-09-12T11:29:07.574Z,1765.48139
2022-09-12T11:44:09.548Z,1797.45187
2022-09-12T11:59:11.501Z,1786.66716
2022-09-12T12:14:13.425Z,1795.04403
2022-09-12T12:29:15.303Z,1801.07576
2022-09-12T12:44:17.269Z,1790.24766
2022-09-12T12:59:19.216Z,1803.49982
2022-09-12T13:14:21.122Z,1804.7143
2022-09-12T13:29:23.013Z,1815.71865
2022-09-12T13:44:24.945Z,1843.19169
2022-09-12T13:59:26.874Z,1810.81131
2022-09-12T14:14:28.822Z,1839.39652
2022-09-12T14:29:30.784Z,1823.12975
2022-09-12T14:44:32.794Z,1813.26166
2022-09-12T14:59:34.762Z,1801.07576
2022-09-12T15:14:36.712Z,1798.65821
2022-09-12T15:29:38.647Z,1809.58861
2022-09-12T15:44:40.583Z,1836.87507
2022-09-12T15:59:42.498Z,1899.36265
2022-09-12T16:14:44.453Z,1882.02297
2022-09-12T16:29:46.411Z,1908.83241
2022-09-12T16:44:48.320Z,1959.06483
2022-09-12T16:59:50.212Z,1980.78394
2022-09-12T17:14:52.143Z,1970.58873
2022-09-12T17:29:54.070Z,2033.38442
2022-09-12T17:44:56.038Z,2055.21523
2022-09-12T17:59:57.954Z,2105.26366
2022-09-12T18:14:59.952Z,2103.61118
2022-09-12T18:30:20.738Z,2125.29789
2022-09-12T18:45:23.735Z,2150.88333
2022-09-12T19:00:25.738Z,2180.63517
2022-09-12T19:15:27.717Z,2178.86229
2022-09-12T19:30:29.630Z,2163.03521
2022-09-12T19:45:31.579Z,2194.9227
2022-09-12T20:00:33.497Z,2229.61781
2022-09-12T20:15:35.763Z,2222.22273
2022-09-12T20:30:37.789Z,2240.80318
2022-09-12T20:45:39.750Z,2229.61781
2022-09-12T21:00:41.701Z,2263.51402
2022-09-12T21:15:43.631Z,2235.1965
2022-09-12T21:30:45.614Z,2200.32891
2022-09-12T21:45:47.540Z,2178.86229
2022-09-12T22:00:49.493Z,1677.09686
2022-09-12T22:15:51.483Z,1439.31308
2022-09-12T22:30:53.550Z,1334.66186
2022-09-12T22:45:55.526Z,1175.4391
2022-09-12T23:00:57.450Z,1328.04808
2022-09-12T23:15:59.404Z,1370.14366
2022-09-12T23:31:01.360Z,1511.56282
2022-09-12T23:46:03.359Z,1637.14161
